Time;durP1;ratioP1;P1;durP2;ratioP2;P2;SDS_P1;SDS_P2;PMS_P1;PMS_P2;Temp;Humidity;BMP_temperature;BMP_pressure;BME280_temperature;BME280_humidity;BME280_pressure;Samples;Min_cycle;Max_cycle;Signal;HPM_P1;HPM_P2
2022/01/12 00:02:18;;;;;;;42.13;14.52;;;;;;;;;;5027869;28;20029;-51
2022/01/12 00:04:44;;;;;;;43.40;14.23;;;;;;;;;;5028026;28;20017;-51
2022/01/12 00:07:10;;;;;;;42.88;15.52;;;;;;;;;;5021283;28;20369;-51
2022/01/12 00:09:36;;;;;;;39.30;14.32;;;;;;;;;;5027514;28;20033;-52
2022/01/12 00:12:02;;;;;;;40.45;12.30;;;;;;;;;;5024802;28;20038;-53
2022/01/12 00:14:28;;;;;;;34.65;13.25;;;;;;;;;;5030868;28;20112;-55
2022/01/12 00:16:59;;;;;;;34.13;11.90;;;;;;;;;;5023086;28;20135;-51
2022/01/12 00:19:26;;;;;;;28.67;10.95;;;;;;;;;;5026950;28;20046;-54
2022/01/12 00:21:55;;;;;;;37.60;12.85;;;;;;;;;;5026639;28;20088;-53
2022/01/12 00:24:21;;;;;;;32.58;12.02;;;;;;;;;;5031166;28;20030;-53
2022/01/12 00:35:01;;;;;;;29.95;12.80;;;;;;;;;;5031206;28;20099;-52
2022/01/12 00:37:27;;;;;;;35.03;12.88;;;;;;;;;;5021594;28;20024;-51
2022/01/12 00:39:58;;;;;;;34.92;12.05;;;;;;;;;;5029982;28;20029;-54
2022/01/12 00:42:26;;;;;;;40.17;13.25;;;;;;;;;;5029331;28;20033;-53
2022/01/12 00:44:53;;;;;;;36.70;12.60;;;;;;;;;;5029325;28;20025;-56
2022/01/12 00:47:19;;;;;;;35.28;12.93;;;;;;;;;;5025043;28;20022;-54
2022/01/12 00:49:45;;;;;;;32.33;12.93;;;;;;;;;;5031103;28;20474;-55
2022/01/12 00:52:11;;;;;;;38.35;12.48;;;;;;;;;;5024833;28;20033;-56
2022/01/12 00:54:38;;;;;;;36.70;12.95;;;;;;;;;;5028035;28;20385;-50
2022/01/12 00:57:04;;;;;;;33.60;13.05;;;;;;;;;;5020179;28;20039;-55
2022/01/12 00:59:30;;;;;;;39.22;13.13;;;;;;;;;;5029710;28;20069;-54
2022/01/12 01:01:56;;;;;;;38.88;12.80;;;;;;;;;;5029367;28;20021;-56
2022/01/12 01:04:22;;;;;;;37.88;11.60;;;;;;;;;;5027865;28;20040;-52
2022/01/12 01:06:50;;;;;;;45.90;13.98;;;;;;;;;;5021308;28;20022;-54
2022/01/12 01:09:16;;;;;;;42.95;13.88;;;;;;;;;;5025966;28;20081;-52
2022/01/12 01:11:42;;;;;;;40.83;13.35;;;;;;;;;;5028101;28;20055;-52
2022/01/12 01:14:21;;;;;;;34.47;12.38;;;;;;;;;;5032136;28;20057;-52
2022/01/12 01:25:26;;;;;;;34.80;12.02;;;;;;;;;;5027978;28;20056;-52
2022/01/12 01:27:51;;;;;;;31.88;11.98;;;;;;;;;;5016498;28;20033;-54
2022/01/12 01:30:17;;;;;;;32.92;12.15;;;;;;;;;;5023124;28;20029;-53
2022/01/12 01:32:44;;;;;;;36.45;11.82;;;;;;;;;;5029206;28;20053;-55
2022/01/12 01:35:10;;;;;;;40.45;13.80;;;;;;;;;;5031208;28;20049;-55
2022/01/12 01:37:39;;;;;;;36.65;12.68;;;;;;;;;;5024592;28;20030;-55
2022/01/12 01:40:06;;;;;;;36.22;12.48;;;;;;;;;;5030430;28;20091;-52
2022/01/12 01:42:53;;;;;;;41.35;13.27;;;;;;;;;;5023943;28;20866;-54
2022/01/12 01:53:33;;;;;;;31.65;12.13;;;;;;;;;;5030925;28;20032;-56
2022/01/12 01:55:59;;;;;;;45.63;13.73;;;;;;;;;;5033171;28;20365;-56
2022/01/12 01:58:25;;;;;;;35.67;13.05;;;;;;;;;;5031327;28;20033;-55
2022/01/12 02:00:51;;;;;;;43.40;14.40;;;;;;;;;;5033312;28;20025;-54
2022/01/12 02:03:18;;;;;;;40.88;14.15;;;;;;;;;;5032963;28;20471;-52
2022/01/12 02:05:44;;;;;;;43.95;13.00;;;;;;;;;;5027708;28;20056;-52
2022/01/12 02:08:11;;;;;;;39.47;13.63;;;;;;;;;;5025047;28;20100;-52
2022/01/12 02:10:37;;;;;;;33.42;12.15;;;;;;;;;;5029268;28;20112;-55
2022/01/12 02:13:03;;;;;;;34.42;12.18;;;;;;;;;;5033707;28;20030;-51
2022/01/12 02:15:29;;;;;;;34.47;12.57;;;;;;;;;;5025203;28;20501;-56
2022/01/12 02:18:08;;;;;;;38.53;12.43;;;;;;;;;;5025785;28;20029;-56
2022/01/12 02:39:47;;;;;;;39.95;14.25;;;;;;;;;;5019885;28;20079;-52
2022/01/12 02:40:06;;;;;;;43.47;13.10;;;;;;;;;;5024151;28;20447;-54
2022/01/12 02:42:33;;;;;;;41.97;14.57;;;;;;;;;;5030940;28;20040;-52
2022/01/12 02:50:56;;;;;;;38.53;14.50;;;;;;;;;;5031313;28;20092;-54
2022/01/12 02:53:41;;;;;;;43.20;14.55;;;;;;;;;;5023632;28;20034;-53
2022/01/12 02:56:15;;;;;;;44.63;14.02;;;;;;;;;;5031465;28;20040;-56
2022/01/12 02:58:42;;;;;;;46.67;14.25;;;;;;;;;;5020013;28;20166;-56
2022/01/12 03:03:52;;;;;;;48.25;14.60;;;;;;;;;;5021964;28;20032;-53
2022/01/12 03:06:21;;;;;;;49.95;15.48;;;;;;;;;;5027023;28;20022;-55
2022/01/12 03:08:48;;;;;;;39.47;15.02;;;;;;;;;;5027632;28;20088;-55
2022/01/12 03:11:16;;;;;;;44.10;14.70;;;;;;;;;;5029568;28;20462;-52
2022/01/12 03:13:42;;;;;;;41.97;13.07;;;;;;;;;;5036480;28;20109;-55
2022/01/12 03:16:14;;;;;;;56.03;17.45;;;;;;;;;;5025279;28;20029;-54
2022/01/12 03:18:41;;;;;;;48.28;14.70;;;;;;;;;;5032965;28;20485;-54
2022/01/12 03:21:08;;;;;;;44.55;14.52;;;;;;;;;;5025655;28;20025;-50
2022/01/12 03:23:34;;;;;;;45.70;15.52;;;;;;;;;;5027437;28;20532;-50
2022/01/12 03:26:00;;;;;;;50.55;15.57;;;;;;;;;;5029227;28;20171;-52
2022/01/12 03:28:27;;;;;;;46.95;14.60;;;;;;;;;;5033753;28;20466;-54
2022/01/12 03:30:56;;;;;;;45.55;15.45;;;;;;;;;;5026579;28;20029;-50
2022/01/12 03:36:25;;;;;;;53.20;15.88;;;;;;;;;;5019817;28;20500;-55
2022/01/12 03:38:53;;;;;;;51.78;15.57;;;;;;;;;;5029610;28;20140;-54
2022/01/12 03:41:19;;;;;;;43.70;14.50;;;;;;;;;;5027748;28;20030;-50
2022/01/12 03:43:45;;;;;;;44.08;14.43;;;;;;;;;;5033607;28;20423;-50
2022/01/12 03:46:12;;;;;;;47.20;15.63;;;;;;;;;;5027666;28;20359;-52
2022/01/12 03:48:38;;;;;;;48.58;15.60;;;;;;;;;;5030687;28;20017;-51
2022/01/12 03:51:04;;;;;;;46.75;15.68;;;;;;;;;;5019578;28;20520;-54
2022/01/12 03:53:30;;;;;;;48.45;16.77;;;;;;;;;;5032127;28;20043;-53
2022/01/12 03:55:56;;;;;;;46.95;15.55;;;;;;;;;;5022714;28;20049;-53
2022/01/12 03:58:22;;;;;;;44.40;15.55;;;;;;;;;;5028577;28;20029;-56
2022/01/12 04:00:48;;;;;;;49.88;15.85;;;;;;;;;;5025565;28;20025;-56
2022/01/12 04:03:15;;;;;;;41.72;15.35;;;;;;;;;;5018007;28;20391;-56
2022/01/12 04:08:26;;;;;;;47.28;16.73;;;;;;;;;;5032598;28;20524;-52
2022/01/12 04:10:53;;;;;;;49.45;16.33;;;;;;;;;;5028499;28;20049;-53
2022/01/12 04:13:22;;;;;;;54.47;15.57;;;;;;;;;;5024692;28;20466;-53
2022/01/12 04:15:50;;;;;;;44.25;15.20;;;;;;;;;;5025285;28;20164;-56
2022/01/12 04:18:16;;;;;;;49.20;15.82;;;;;;;;;;5026410;28;20029;-56
2022/01/12 04:20:46;;;;;;;49.70;16.23;;;;;;;;;;5033324;28;20033;-56
2022/01/12 04:23:19;;;;;;;47.28;15.13;;;;;;;;;;5025291;28;20470;-53
2022/01/12 04:25:49;;;;;;;47.25;14.80;;;;;;;;;;5022931;28;20069;-54
2022/01/12 04:28:15;;;;;;;55.42;15.30;;;;;;;;;;5028735;28;20032;-53
2022/01/12 04:30:42;;;;;;;48.40;15.57;;;;;;;;;;5021771;28;20033;-53
2022/01/12 04:33:08;;;;;;;46.95;15.55;;;;;;;;;;5028355;28;20091;-52
2022/01/12 04:35:37;;;;;;;53.15;17.55;;;;;;;;;;5022444;28;20049;-52
2022/01/12 04:38:03;;;;;;;44.40;14.60;;;;;;;;;;5022511;28;20500;-54
2022/01/12 04:40:29;;;;;;;50.60;16.13;;;;;;;;;;5031849;28;20045;-52
2022/01/12 04:42:56;;;;;;;44.00;15.38;;;;;;;;;;5030103;28;20104;-51
2022/01/12 04:50:24;;;;;;;55.97;17.30;;;;;;;;;;5031827;28;20444;-55
2022/01/12 04:52:50;;;;;;;53.33;17.75;;;;;;;;;;5028413;28;20469;-52
2022/01/12 04:55:17;;;;;;;51.40;18.35;;;;;;;;;;5028450;28;20520;-54
2022/01/12 04:57:43;;;;;;;52.97;17.50;;;;;;;;;;5028687;28;20100;-53
2022/01/12 05:00:15;;;;;;;54.50;18.13;;;;;;;;;;5030004;28;20440;-53
2022/01/12 05:08:34;;;;;;;48.47;18.13;;;;;;;;;;5028716;28;20527;-50
2022/01/12 05:13:47;;;;;;;66.45;18.92;;;;;;;;;;5021114;28;20449;-53
2022/01/12 05:16:14;;;;;;;54.20;19.08;;;;;;;;;;5022309;28;20030;-50
2022/01/12 05:18:41;;;;;;;54.05;17.65;;;;;;;;;;5029551;28;20052;-50
2022/01/12 05:21:07;;;;;;;57.58;18.40;;;;;;;;;;5028095;28;20034;-51
2022/01/12 05:23:33;;;;;;;54.55;16.85;;;;;;;;;;5025331;28;20049;-55
2022/01/12 05:26:00;;;;;;;54.10;17.42;;;;;;;;;;5019830;28;20160;-54
2022/01/12 05:28:26;;;;;;;52.42;16.33;;;;;;;;;;5031595;28;20021;-55
2022/01/12 05:30:53;;;;;;;62.20;17.50;;;;;;;;;;5027678;28;20128;-54
2022/01/12 05:33:19;;;;;;;54.85;17.30;;;;;;;;;;5026245;28;20384;-56
2022/01/12 05:35:45;;;;;;;49.58;16.75;;;;;;;;;;5019787;28;20125;-54
2022/01/12 05:38:12;;;;;;;56.33;17.85;;;;;;;;;;5022943;28;20489;-55
2022/01/12 05:40:39;;;;;;;51.97;16.50;;;;;;;;;;5028708;28;20102;-52
2022/01/12 05:43:06;;;;;;;60.65;17.17;;;;;;;;;;5020012;28;20374;-55
2022/01/12 05:45:33;;;;;;;51.00;16.42;;;;;;;;;;5022019;28;20856;-53
2022/01/12 05:50:26;;;;;;;56.60;18.35;;;;;;;;;;5033928;28;20030;-53
2022/01/12 05:52:53;;;;;;;53.35;16.83;;;;;;;;;;5027558;28;20048;-51
2022/01/12 05:55:19;;;;;;;47.03;16.77;;;;;;;;;;5022425;28;20029;-55
2022/01/12 05:57:45;;;;;;;50.15;16.02;;;;;;;;;;5022840;28;20030;-55
2022/01/12 06:00:12;;;;;;;46.03;15.90;;;;;;;;;;5028666;28;20469;-56
2022/01/12 06:02:39;;;;;;;50.78;16.60;;;;;;;;;;5020438;28;20440;-51
2022/01/12 06:05:05;;;;;;;52.83;16.48;;;;;;;;;;5029911;28;20035;-52
2022/01/12 06:07:31;;;;;;;41.28;15.50;;;;;;;;;;5022628;28;20628;-50
2022/01/12 06:09:57;;;;;;;47.28;15.85;;;;;;;;;;5019966;28;20030;-52
2022/01/12 06:12:23;;;;;;;40.63;14.20;;;;;;;;;;5026559;28;20029;-55
2022/01/12 06:14:49;;;;;;;49.70;13.82;;;;;;;;;;5024323;28;20135;-55
2022/01/12 06:17:15;;;;;;;42.58;15.52;;;;;;;;;;5029391;28;20401;-55
2022/01/12 06:19:41;;;;;;;47.22;15.00;;;;;;;;;;5029047;28;20040;-53
2022/01/12 06:22:07;;;;;;;47.58;15.57;;;;;;;;;;5037268;28;20108;-56
2022/01/12 06:24:33;;;;;;;53.45;14.30;;;;;;;;;;5028635;28;20029;-51
2022/01/12 06:27:00;;;;;;;47.30;14.48;;;;;;;;;;5021886;28;20037;-53
2022/01/12 06:32:18;;;;;;;48.13;13.93;;;;;;;;;;5023747;28;20033;-53
2022/01/12 06:34:45;;;;;;;45.00;15.25;;;;;;;;;;5025256;28;20528;-53
2022/01/12 06:37:11;;;;;;;48.50;14.90;;;;;;;;;;5031916;28;20059;-56
2022/01/12 06:39:37;;;;;;;48.53;15.45;;;;;;;;;;5034265;28;20064;-55
2022/01/12 06:42:03;;;;;;;50.78;15.70;;;;;;;;;;5040678;28;20465;-53
2022/01/12 06:44:29;;;;;;;45.10;14.88;;;;;;;;;;5035762;28;20375;-52
2022/01/12 06:46:58;;;;;;;45.03;14.55;;;;;;;;;;5029316;28;20036;-56
2022/01/12 06:49:24;;;;;;;49.90;15.52;;;;;;;;;;5034628;28;20393;-54
2022/01/12 06:51:50;;;;;;;43.03;13.00;;;;;;;;;;5027813;28;20037;-52
2022/01/12 06:54:16;;;;;;;44.10;15.05;;;;;;;;;;5026722;28;20040;-53
2022/01/12 06:56:43;;;;;;;40.78;13.15;;;;;;;;;;5027796;28;20025;-54
2022/01/12 06:59:09;;;;;;;48.95;14.00;;;;;;;;;;5032570;28;20113;-51
2022/01/12 07:01:35;;;;;;;52.92;14.32;;;;;;;;;;5016284;28;20030;-56
2022/01/12 07:04:01;;;;;;;41.80;14.43;;;;;;;;;;5029759;28;20464;-56
2022/01/12 07:06:27;;;;;;;44.88;13.60;;;;;;;;;;5022618;28;20040;-52
2022/01/12 07:08:53;;;;;;;45.90;14.15;;;;;;;;;;5021815;28;20032;-54
2022/01/12 07:11:19;;;;;;;51.55;15.18;;;;;;;;;;5025825;28;20075;-53
2022/01/12 07:13:46;;;;;;;46.60;15.00;;;;;;;;;;5031085;28;20029;-50
2022/01/12 07:16:12;;;;;;;49.63;15.95;;;;;;;;;;5032325;28;20100;-56
2022/01/12 07:18:39;;;;;;;46.35;13.85;;;;;;;;;;5032104;28;20021;-56
2022/01/12 07:21:05;;;;;;;49.55;14.68;;;;;;;;;;5030654;28;20029;-52
2022/01/12 07:23:31;;;;;;;46.38;13.93;;;;;;;;;;5028614;28;20088;-55
2022/01/12 07:25:57;;;;;;;38.70;14.20;;;;;;;;;;5033396;28;20082;-54
2022/01/12 07:28:23;;;;;;;51.25;15.65;;;;;;;;;;5033678;28;20484;-56
2022/01/12 07:30:49;;;;;;;48.28;16.08;;;;;;;;;;5029362;28;20117;-55
2022/01/12 07:33:16;;;;;;;47.70;16.55;;;;;;;;;;5022931;28;20034;-55
2022/01/12 07:35:42;;;;;;;44.88;12.82;;;;;;;;;;5033961;28;20056;-50
2022/01/12 07:38:08;;;;;;;45.28;15.25;;;;;;;;;;5025158;28;20491;-51
2022/01/12 07:40:35;;;;;;;58.08;17.48;;;;;;;;;;5036925;28;20365;-50
2022/01/12 07:43:02;;;;;;;54.67;18.15;;;;;;;;;;5035414;28;20420;-50
2022/01/12 07:45:27;;;;;;;51.42;17.60;;;;;;;;;;5028250;28;20037;-50
2022/01/12 07:47:53;;;;;;;56.28;18.83;;;;;;;;;;5027069;28;20021;-55
2022/01/12 07:50:20;;;;;;;55.28;18.65;;;;;;;;;;5024440;28;20029;-55
2022/01/12 07:52:46;;;;;;;52.58;17.33;;;;;;;;;;5032831;28;20033;-55
2022/01/12 07:55:12;;;;;;;41.25;15.02;;;;;;;;;;5016409;28;20036;-56
2022/01/12 07:57:38;;;;;;;49.65;16.23;;;;;;;;;;5031463;28;20361;-54
2022/01/12 08:00:05;;;;;;;54.92;15.80;;;;;;;;;;5033825;28;20037;-55
2022/01/12 08:02:31;;;;;;;49.03;16.13;;;;;;;;;;5032755;28;20026;-53
2022/01/12 08:04:57;;;;;;;47.92;15.85;;;;;;;;;;5032432;28;20092;-52
2022/01/12 08:07:23;;;;;;;53.33;16.70;;;;;;;;;;5032888;28;20037;-56
2022/01/12 08:09:49;;;;;;;58.28;16.75;;;;;;;;;;5027865;28;20157;-54
2022/01/12 08:12:15;;;;;;;50.28;16.23;;;;;;;;;;5024262;28;20033;-51
2022/01/12 08:14:41;;;;;;;53.60;17.00;;;;;;;;;;5033388;28;20036;-51
2022/01/12 08:17:07;;;;;;;50.63;15.48;;;;;;;;;;5022571;28;20030;-51
2022/01/12 08:19:36;;;;;;;51.65;17.05;;;;;;;;;;5023593;28;20458;-51
2022/01/12 08:22:02;;;;;;;47.85;15.95;;;;;;;;;;5039448;28;20022;-52
2022/01/12 08:24:28;;;;;;;52.40;16.25;;;;;;;;;;5031466;28;20105;-53
2022/01/12 08:26:54;;;;;;;50.58;14.95;;;;;;;;;;5024895;28;20104;-53
2022/01/12 08:29:20;;;;;;;45.90;15.93;;;;;;;;;;5032717;28;20029;-51
2022/01/12 08:31:46;;;;;;;64.93;17.02;;;;;;;;;;5032249;28;20142;-54
2022/01/12 08:34:13;;;;;;;51.65;16.00;;;;;;;;;;5022635;28;20072;-53
2022/01/12 08:36:39;;;;;;;52.10;14.93;;;;;;;;;;5021410;28;20164;-54
2022/01/12 08:39:08;;;;;;;47.08;14.98;;;;;;;;;;5030964;28;20033;-56
2022/01/12 08:41:35;;;;;;;46.08;13.77;;;;;;;;;;5026982;28;20053;-52
2022/01/12 08:44:02;;;;;;;56.00;15.20;;;;;;;;;;5025643;28;20028;-51
2022/01/12 08:46:28;;;;;;;49.92;14.98;;;;;;;;;;5026880;28;20144;-52
2022/01/12 08:48:54;;;;;;;52.78;16.13;;;;;;;;;;5032237;28;20048;-50
2022/01/12 08:51:20;;;;;;;58.58;15.25;;;;;;;;;;5030143;28;20029;-50
2022/01/12 08:53:46;;;;;;;51.30;15.43;;;;;;;;;;5032437;28;20053;-52
2022/01/12 08:56:12;;;;;;;57.75;17.83;;;;;;;;;;5015159;28;20045;-52
2022/01/12 08:58:38;;;;;;;40.33;13.85;;;;;;;;;;5026470;28;20396;-51
2022/01/12 09:01:04;;;;;;;57.13;16.15;;;;;;;;;;5019577;28;20412;-51
2022/01/12 09:03:31;;;;;;;51.47;15.00;;;;;;;;;;5023339;28;20033;-51
2022/01/12 09:05:57;;;;;;;53.33;15.27;;;;;;;;;;5036097;28;20107;-50
2022/01/12 09:08:23;;;;;;;39.60;14.00;;;;;;;;;;5027828;28;20105;-51
2022/01/12 09:10:49;;;;;;;46.45;15.43;;;;;;;;;;5024603;28;20025;-52
2022/01/12 09:13:15;;;;;;;50.28;14.45;;;;;;;;;;5042674;28;20366;-50
2022/01/12 09:15:41;;;;;;;41.70;14.00;;;;;;;;;;5031149;28;20101;-52
2022/01/12 09:18:07;;;;;;;45.80;13.48;;;;;;;;;;5032034;28;20441;-51
2022/01/12 09:20:33;;;;;;;47.22;13.98;;;;;;;;;;5033380;28;20029;-52
2022/01/12 09:22:59;;;;;;;46.47;13.30;;;;;;;;;;5033279;28;20101;-50
2022/01/12 09:25:25;;;;;;;42.33;13.88;;;;;;;;;;5020255;28;20030;-50
2022/01/12 09:27:51;;;;;;;42.53;14.48;;;;;;;;;;5030192;28;20078;-52
2022/01/12 09:30:23;;;;;;;39.00;12.45;;;;;;;;;;5025122;28;20033;-51
2022/01/12 09:32:49;;;;;;;46.35;14.52;;;;;;;;;;5019749;28;20117;-52
2022/01/12 09:35:15;;;;;;;40.97;14.00;;;;;;;;;;5022376;28;20465;-54
2022/01/12 09:37:41;;;;;;;41.22;13.15;;;;;;;;;;5031181;28;20060;-52
2022/01/12 09:40:07;;;;;;;35.05;13.32;;;;;;;;;;5027656;28;20064;-54
2022/01/12 09:42:33;;;;;;;40.92;13.50;;;;;;;;;;5019675;28;20037;-53
2022/01/12 09:45:00;;;;;;;42.58;14.13;;;;;;;;;;5023369;28;20033;-51
2022/01/12 09:47:26;;;;;;;39.30;12.73;;;;;;;;;;5025240;28;20444;-53
2022/01/12 09:49:52;;;;;;;38.92;13.00;;;;;;;;;;5018482;28;20045;-52
2022/01/12 09:52:18;;;;;;;42.88;13.40;;;;;;;;;;5021148;28;20034;-51
2022/01/12 09:54:45;;;;;;;37.85;12.43;;;;;;;;;;5027754;28;20028;-53
2022/01/12 09:57:11;;;;;;;38.45;12.68;;;;;;;;;;5030823;28;20037;-51
2022/01/12 09:59:37;;;;;;;38.10;12.05;;;;;;;;;;5020994;28;20109;-54
2022/01/12 10:02:03;;;;;;;28.40;10.93;;;;;;;;;;5024006;28;20056;-52
2022/01/12 10:04:31;;;;;;;35.53;12.95;;;;;;;;;;5017796;28;20068;-56
2022/01/12 10:06:58;;;;;;;37.13;11.57;;;;;;;;;;5030508;28;20030;-51
2022/01/12 10:09:32;;;;;;;38.45;12.07;;;;;;;;;;5028006;28;20029;-54
2022/01/12 10:12:00;;;;;;;32.60;12.07;;;;;;;;;;5021583;28;20022;-51
2022/01/12 10:14:37;;;;;;;38.50;12.20;;;;;;;;;;5033927;28;20533;-52
2022/01/12 10:17:03;;;;;;;29.00;10.75;;;;;;;;;;5030409;28;20041;-54
2022/01/12 10:19:31;;;;;;;29.30;11.02;;;;;;;;;;5023954;28;20048;-51
2022/01/12 10:21:58;;;;;;;35.15;12.00;;;;;;;;;;5017808;28;20454;-51
2022/01/12 10:24:24;;;;;;;26.10;10.20;;;;;;;;;;5033325;28;20072;-53
2022/01/12 10:26:51;;;;;;;30.52;10.80;;;;;;;;;;5022480;28;20034;-55
2022/01/12 10:29:21;;;;;;;34.10;10.18;;;;;;;;;;5026380;28;20021;-53
2022/01/12 10:31:47;;;;;;;28.17;9.55;;;;;;;;;;5034481;28;20033;-55
2022/01/12 10:34:13;;;;;;;26.98;9.60;;;;;;;;;;5033385;28;20057;-56
2022/01/12 10:36:40;;;;;;;25.17;9.23;;;;;;;;;;5031430;28;20056;-53
2022/01/12 10:39:07;;;;;;;29.35;10.20;;;;;;;;;;5027138;28;20030;-56
2022/01/12 10:41:33;;;;;;;30.98;10.30;;;;;;;;;;5028881;28;20033;-52
2022/01/12 10:43:59;;;;;;;25.40;10.48;;;;;;;;;;5032853;28;20063;-55
2022/01/12 10:46:26;;;;;;;29.50;9.77;;;;;;;;;;5022879;28;20052;-52
2022/01/12 10:48:54;;;;;;;28.10;9.63;;;;;;;;;;5028400;28;20025;-53
2022/01/12 10:51:21;;;;;;;28.83;10.20;;;;;;;;;;5034520;28;20033;-51
2022/01/12 10:53:47;;;;;;;27.98;8.20;;;;;;;;;;5021436;28;20041;-50
2022/01/12 10:56:15;;;;;;;28.70;9.57;;;;;;;;;;5032649;28;20060;-51
2022/01/12 10:58:42;;;;;;;21.15;8.57;;;;;;;;;;5032403;28;20084;-52
2022/01/12 11:01:09;;;;;;;27.65;9.80;;;;;;;;;;5034124;28;20017;-55
2022/01/12 11:03:35;;;;;;;25.70;8.82;;;;;;;;;;5031082;28;20025;-51
2022/01/12 11:06:01;;;;;;;29.77;9.75;;;;;;;;;;5030937;28;20378;-53
2022/01/12 11:08:28;;;;;;;25.67;10.38;;;;;;;;;;5027064;28;20044;-55
2022/01/12 11:10:54;;;;;;;25.25;9.32;;;;;;;;;;5025988;28;20428;-52
2022/01/12 11:13:21;;;;;;;27.80;9.93;;;;;;;;;;5029918;28;20029;-56
2022/01/12 11:15:47;;;;;;;30.33;9.65;;;;;;;;;;5021649;28;20029;-56
2022/01/12 11:18:14;;;;;;;20.92;9.18;;;;;;;;;;5030940;28;20044;-51
2022/01/12 11:20:41;;;;;;;23.63;10.05;;;;;;;;;;5025709;28;20474;-56
2022/01/12 11:23:07;;;;;;;26.95;10.55;;;;;;;;;;5025899;28;20030;-52
2022/01/12 11:25:34;;;;;;;24.85;10.05;;;;;;;;;;5028354;28;20044;-56
2022/01/12 11:28:07;;;;;;;29.73;11.43;;;;;;;;;;5031818;28;21467;-52
2022/01/12 11:30:34;;;;;;;28.00;9.70;;;;;;;;;;5037141;28;20038;-53
2022/01/12 11:33:01;;;;;;;35.47;11.30;;;;;;;;;;5034729;28;20042;-55
2022/01/12 11:35:29;;;;;;;24.85;10.60;;;;;;;;;;5033528;28;20053;-50
2022/01/12 11:37:59;;;;;;;34.10;10.48;;;;;;;;;;5020778;28;20379;-52
2022/01/12 11:40:35;;;;;;;24.50;10.05;;;;;;;;;;5033506;28;20104;-56
2022/01/12 11:43:01;;;;;;;29.77;11.52;;;;;;;;;;5033166;28;20053;-52
2022/01/12 11:45:27;;;;;;;35.97;12.25;;;;;;;;;;5021659;28;20133;-54
2022/01/12 11:47:53;;;;;;;34.45;11.48;;;;;;;;;;5020538;28;20057;-54
2022/01/12 11:50:19;;;;;;;35.88;11.00;;;;;;;;;;5032763;28;20057;-54
2022/01/12 11:52:45;;;;;;;26.73;11.10;;;;;;;;;;5032946;28;20441;-51
2022/01/12 11:55:13;;;;;;;34.75;12.35;;;;;;;;;;5031413;28;20029;-52
2022/01/12 11:57:41;;;;;;;36.65;13.02;;;;;;;;;;5032066;28;20029;-55
2022/01/12 12:00:10;;;;;;;31.85;11.25;;;;;;;;;;5024579;28;20072;-51
2022/01/12 12:02:46;;;;;;;35.10;11.63;;;;;;;;;;5021002;28;20578;-54
2022/01/12 12:05:13;;;;;;;29.33;11.45;;;;;;;;;;5030404;28;20075;-51
2022/01/12 12:07:47;;;;;;;35.60;12.50;;;;;;;;;;5033409;28;20029;-52
2022/01/12 12:10:15;;;;;;;37.15;13.13;;;;;;;;;;5018504;28;20044;-51
2022/01/12 12:12:41;;;;;;;38.90;13.50;;;;;;;;;;5022352;28;20029;-52
2022/01/12 12:15:08;;;;;;;38.28;13.23;;;;;;;;;;5033921;28;20047;-51
2022/01/12 12:17:35;;;;;;;35.53;13.57;;;;;;;;;;5037559;28;20068;-51
2022/01/12 12:20:01;;;;;;;36.03;13.20;;;;;;;;;;5027538;28;20036;-51
2022/01/12 12:22:32;;;;;;;41.78;12.38;;;;;;;;;;5033993;28;20053;-56
2022/01/12 12:25:04;;;;;;;45.15;14.68;;;;;;;;;;5033403;28;20017;-53
2022/01/12 12:27:30;;;;;;;45.10;13.23;;;;;;;;;;5026645;28;20096;-54
2022/01/12 12:29:57;;;;;;;39.30;12.13;;;;;;;;;;5021835;28;20120;-54
2022/01/12 12:32:34;;;;;;;40.67;13.35;;;;;;;;;;5029699;28;20030;-55
2022/01/12 12:35:01;;;;;;;39.95;13.43;;;;;;;;;;5028412;28;20060;-55
2022/01/12 12:37:34;;;;;;;36.28;13.32;;;;;;;;;;5031514;28;20482;-55
2022/01/12 12:40:11;;;;;;;45.30;14.13;;;;;;;;;;5027756;28;20034;-55
2022/01/12 12:42:38;;;;;;;43.72;14.00;;;;;;;;;;5018688;28;20269;-51
2022/01/12 12:45:04;;;;;;;43.05;12.52;;;;;;;;;;5032294;28;20044;-52
2022/01/12 12:47:32;;;;;;;39.67;12.50;;;;;;;;;;5027308;28;20040;-52
2022/01/12 12:50:01;;;;;;;35.05;13.10;;;;;;;;;;5032694;28;20026;-57
2022/01/12 12:52:31;;;;;;;37.05;12.90;;;;;;;;;;5032207;28;20063;-55
2022/01/12 12:55:01;;;;;;;46.67;14.23;;;;;;;;;;5030722;28;20044;-56
2022/01/12 12:57:28;;;;;;;40.47;14.52;;;;;;;;;;5028537;28;20033;-57
2022/01/12 13:00:07;;;;;;;38.58;13.68;;;;;;;;;;5027779;28;20424;-57
2022/01/12 13:02:37;;;;;;;47.65;14.13;;;;;;;;;;5027342;28;20532;-57
2022/01/12 13:05:07;;;;;;;39.63;14.27;;;;;;;;;;5031048;28;20563;-56
2022/01/12 13:07:40;;;;;;;36.17;13.45;;;;;;;;;;5024952;28;20076;-57
2022/01/12 13:10:08;;;;;;;47.97;14.90;;;;;;;;;;5029731;28;20136;-52
2022/01/12 13:12:38;;;;;;;42.47;13.38;;;;;;;;;;5037604;28;20036;-57
2022/01/12 13:15:04;;;;;;;46.72;16.10;;;;;;;;;;5015091;28;20112;-54
2022/01/12 13:17:31;;;;;;;43.80;15.50;;;;;;;;;;5036027;28;20034;-56
2022/01/12 13:22:27;;;;;;;45.35;14.07;;;;;;;;;;5023238;28;20030;-51
2022/01/12 13:24:53;;;;;;;48.28;15.18;;;;;;;;;;5027015;28;20025;-56
2022/01/12 13:27:20;;;;;;;41.53;13.93;;;;;;;;;;5020425;28;20033;-51
2022/01/12 13:29:49;;;;;;;44.28;15.18;;;;;;;;;;5027433;28;20025;-53
2022/01/12 13:32:16;;;;;;;47.58;14.55;;;;;;;;;;5024083;28;20409;-57
2022/01/12 13:34:43;;;;;;;41.08;14.20;;;;;;;;;;5024734;28;20065;-53
2022/01/12 13:37:15;;;;;;;40.55;15.38;;;;;;;;;;5023343;28;20391;-55
2022/01/12 13:39:43;;;;;;;41.50;13.88;;;;;;;;;;5019086;28;20034;-54
2022/01/12 13:42:09;;;;;;;37.55;13.63;;;;;;;;;;5024189;28;20427;-54
2022/01/12 13:44:35;;;;;;;47.30;15.27;;;;;;;;;;5037327;28;20096;-50
2022/01/12 13:47:11;;;;;;;41.20;13.40;;;;;;;;;;5034000;28;20026;-51
2022/01/12 13:49:37;;;;;;;49.58;15.07;;;;;;;;;;5022698;28;20025;-52
2022/01/12 13:52:05;;;;;;;46.30;15.05;;;;;;;;;;5035729;28;20026;-51
2022/01/12 13:54:36;;;;;;;43.00;14.45;;;;;;;;;;5033433;28;20033;-53
2022/01/12 13:57:03;;;;;;;43.15;14.77;;;;;;;;;;5025365;28;20121;-51
2022/01/12 13:59:30;;;;;;;46.83;15.85;;;;;;;;;;5032411;28;20053;-52
2022/01/12 14:01:58;;;;;;;41.83;15.57;;;;;;;;;;5034339;28;20029;-53
2022/01/12 14:04:27;;;;;;;51.90;14.75;;;;;;;;;;5034189;28;20108;-52
2022/01/12 14:06:59;;;;;;;43.47;14.02;;;;;;;;;;5027866;28;20025;-53
2022/01/12 14:09:33;;;;;;;47.33;15.73;;;;;;;;;;5032743;28;20037;-50
2022/01/12 14:11:58;;;;;;;;;;;;;;;;;;5033225;28;20017;-55
2022/01/12 14:14:24;;;;;;;49.78;15.60;;;;;;;;;;5021298;28;20349;-51
2022/01/12 14:16:50;;;;;;;43.13;14.45;;;;;;;;;;5029129;28;20030;-53
2022/01/12 14:19:17;;;;;;;45.80;15.82;;;;;;;;;;5029995;28;20037;-55
2022/01/12 14:21:57;;;;;;;48.97;15.35;;;;;;;;;;5035396;28;20041;-55
2022/01/12 14:24:23;;;;;;;51.00;16.02;;;;;;;;;;5036831;28;20495;-54
2022/01/12 14:26:49;;;;;;;54.92;16.73;;;;;;;;;;5032196;28;20029;-52
2022/01/12 14:29:15;;;;;;;45.05;15.75;;;;;;;;;;5033763;28;20033;-50
2022/01/12 14:31:41;;;;;;;58.00;16.30;;;;;;;;;;5031258;28;20029;-55
2022/01/12 14:34:07;;;;;;;54.78;16.15;;;;;;;;;;5038024;28;20041;-57
2022/01/12 14:36:33;;;;;;;47.92;15.85;;;;;;;;;;5036130;28;20484;-55
2022/01/12 14:38:59;;;;;;;41.63;15.18;;;;;;;;;;5034006;28;20116;-56
2022/01/12 14:41:25;;;;;;;48.40;16.70;;;;;;;;;;5027575;28;20026;-57
2022/01/12 14:43:51;;;;;;;45.20;14.65;;;;;;;;;;5035720;28;20022;-51
2022/01/12 14:46:18;;;;;;;52.75;15.27;;;;;;;;;;5032151;28;20028;-56
2022/01/12 14:48:44;;;;;;;45.65;14.70;;;;;;;;;;5037262;28;20086;-53
2022/01/12 14:51:10;;;;;;;46.60;16.13;;;;;;;;;;5031015;28;20052;-54
2022/01/12 14:53:36;;;;;;;48.92;15.32;;;;;;;;;;5024613;28;20025;-53
2022/01/12 14:56:03;;;;;;;52.10;15.82;;;;;;;;;;5028636;28;20032;-57
2022/01/12 14:58:30;;;;;;;52.80;17.33;;;;;;;;;;5033310;28;20099;-52
2022/01/12 15:00:57;;;;;;;54.72;17.80;;;;;;;;;;5027630;28;20112;-56
2022/01/12 15:03:23;;;;;;;50.10;14.98;;;;;;;;;;5034183;28;20484;-51
2022/01/12 15:05:49;;;;;;;45.05;15.63;;;;;;;;;;5032268;28;20032;-52
2022/01/12 15:08:17;;;;;;;46.38;16.63;;;;;;;;;;5022092;28;20374;-52
2022/01/12 15:10:44;;;;;;;42.28;13.60;;;;;;;;;;5028204;28;20128;-53
2022/01/12 15:13:26;;;;;;;45.40;15.70;;;;;;;;;;5031355;28;20033;-54
2022/01/12 15:15:53;;;;;;;51.87;17.30;;;;;;;;;;5023292;28;20048;-51
2022/01/12 15:18:21;;;;;;;47.58;15.68;;;;;;;;;;5026545;28;20057;-56
2022/01/12 15:20:48;;;;;;;48.58;15.35;;;;;;;;;;5024447;28;20658;-51
2022/01/12 15:23:17;;;;;;;44.75;14.98;;;;;;;;;;5027134;28;20372;-52
2022/01/12 15:25:43;;;;;;;48.15;17.25;;;;;;;;;;5024157;28;20026;-52
2022/01/12 15:28:09;;;;;;;44.63;15.55;;;;;;;;;;5023773;28;20025;-54
2022/01/12 15:30:36;;;;;;;48.63;15.85;;;;;;;;;;5022879;28;20022;-57
2022/01/12 15:33:02;;;;;;;47.90;15.63;;;;;;;;;;5019848;28;20037;-55
2022/01/12 15:35:29;;;;;;;40.50;14.90;;;;;;;;;;5032250;28;20041;-56
2022/01/12 15:37:55;;;;;;;42.40;14.95;;;;;;;;;;5033869;28;20044;-53